Time;durP1;ratioP1;P1;durP2;ratioP2;P2;SDS_P1;SDS_P2;PMS_P1;PMS_P2;Temp;Humidity;BMP_temperature;BMP_pressure;BME280_temperature;BME280_humidity;BME280_pressure;Samples;Min_cycle;Max_cycle;Signal;HPM_P1;HPM_P2
2021/04/13 00:02:31;;;;;;;41.20;26.05;;;;;;;9.69;64.72;99846.27;1713799;82;21730;-70
2021/04/13 00:05:11;;;;;;;41.10;26.85;;;;;;;9.82;64.45;99851.59;1719886;82;21226;-70
2021/04/13 00:07:41;;;;;;;39.55;27.17;;;;;;;9.78;64.54;99854.93;1727878;82;21326;-70
2021/04/13 00:10:16;;;;;;;41.50;26.52;;;;;;;9.72;64.63;99850.50;1715137;82;21124;-70
2021/04/13 00:12:45;;;;;;;38.13;25.77;;;;;;;9.62;64.82;99843.19;1742230;82;21310;-70
2021/04/13 00:15:20;;;;;;;44.18;28.02;;;;;;;9.55;65.06;99848.47;1730595;82;21871;-70
2021/04/13 00:17:49;;;;;;;43.25;26.75;;;;;;;9.50;65.20;99840.87;1709771;82;21112;-70
2021/04/13 00:20:25;;;;;;;42.20;25.25;;;;;;;9.47;65.25;99838.89;1688846;84;21163;-70
2021/04/13 00:22:53;;;;;;;42.40;26.57;;;;;;;9.43;65.30;99842.69;1717462;82;21150;-69
2021/04/13 00:25:25;;;;;;;39.13;26.25;;;;;;;9.46;65.28;99843.80;1706738;82;21155;-70
2021/04/13 00:27:53;;;;;;;41.65;26.82;;;;;;;9.54;65.12;99842.84;1690610;82;21162;-70
2021/04/13 00:30:25;;;;;;;40.75;26.30;;;;;;;9.49;65.32;99847.58;1715124;82;21146;-70
2021/04/13 00:33:01;;;;;;;32.13;23.10;;;;;;;9.46;65.49;99844.66;1702749;82;21187;-70
2021/04/13 00:35:33;;;;;;;39.63;26.57;;;;;;;9.43;65.54;99852.76;1740881;82;21167;-70
2021/04/13 00:38:30;;;;;;;47.48;26.87;;;;;;;9.35;65.65;99847.97;1739616;82;21174;-70
2021/04/13 00:41:20;;;;;;;35.43;25.55;;;;;;;9.34;65.74;99847.59;1743530;82;21120;-69
2021/04/13 00:43:59;;;;;;;34.18;23.27;;;;;;;9.35;65.78;99850.61;1744206;82;21330;-69
2021/04/13 00:46:44;;;;;;;41.08;27.42;;;;;;;9.42;65.66;99844.95;1704124;82;21199;-69
2021/04/13 00:49:13;;;;;;;35.68;25.23;;;;;;;9.51;65.35;99848.30;1696984;82;21917;-69
2021/04/13 00:51:50;;;;;;;37.55;23.90;;;;;;;9.45;65.43;99851.33;1724819;82;21147;-69
2021/04/13 00:54:30;;;;;;;40.58;27.60;;;;;;;9.38;65.63;99848.73;1709652;83;21233;-69
2021/04/13 00:57:02;;;;;;;37.42;25.52;;;;;;;9.26;65.80;99848.56;1720656;82;21270;-69
2021/04/13 00:59:29;;;;;;;39.83;25.27;;;;;;;9.21;65.95;99858.56;1722056;82;21139;-70
2021/04/13 01:02:06;;;;;;;38.90;26.30;;;;;;;9.30;65.79;99855.82;1722665;82;21124;-70
2021/04/13 01:04:40;;;;;;;40.48;26.85;;;;;;;9.42;65.55;99855.02;1741129;82;21168;-70
2021/04/13 01:07:12;;;;;;;39.65;27.35;;;;;;;9.40;65.51;99849.01;1732097;82;21773;-69
2021/04/13 01:09:44;;;;;;;35.98;25.17;;;;;;;9.32;65.62;99846.86;1725491;83;21341;-69
2021/04/13 01:12:26;;;;;;;41.10;27.42;;;;;;;9.26;65.80;99839.33;1710901;81;21288;-69
2021/04/13 01:14:54;;;;;;;36.68;23.32;;;;;;;9.20;65.92;99846.31;1728860;81;21364;-69
2021/04/13 01:17:22;;;;;;;35.78;24.87;;;;;;;9.17;66.09;99834.64;1706224;81;21543;-69
2021/04/13 01:20:10;;;;;;;40.20;26.97;;;;;;;9.23;66.00;99850.06;1740527;81;21197;-69
2021/04/13 01:25:25;;;;;;;43.75;28.00;;;;;;;9.25;65.94;99847.34;1728240;81;21324;-69
2021/04/13 01:27:59;;;;;;;42.25;27.75;;;;;;;9.15;66.21;99843.11;1724159;81;21157;-69
2021/04/13 01:30:44;;;;;;;36.20;26.87;;;;;;;9.08;66.39;99837.83;1733159;81;21190;-69
2021/04/13 01:33:22;;;;;;;37.28;24.37;;;;;;;9.06;66.48;99848.97;1757284;81;21277;-69
2021/04/13 01:35:55;;;;;;;36.53;24.27;;;;;;;9.06;66.54;99851.13;1752340;81;21176;-70
2021/04/13 01:41:10;;;;;;;32.98;23.10;;;;;;;9.14;66.64;99835.68;1772272;79;23541;-70
2021/04/13 01:43:39;;;;;;;;;;;;;;;9.01;66.79;99837.38;1743352;80;21265;-70
2021/04/13 01:46:07;;;;;;;38.65;25.70;;;;;;;8.89;67.04;99832.86;1728574;80;20253;-70
2021/04/13 01:48:35;;;;;;;35.33;23.27;;;;;;;8.79;67.35;99836.07;1754591;80;21194;-71
2021/04/13 01:51:06;;;;;;;37.70;24.20;;;;;;;8.86;67.32;99836.53;1694711;82;21111;-70
2021/04/13 01:53:45;;;;;;;37.95;25.50;;;;;;;8.97;67.06;99835.40;1766015;80;21146;-70
2021/04/13 01:56:37;;;;;;;41.02;26.80;;;;;;;8.91;67.24;99834.94;1701313;83;21118;-70
2021/04/13 01:59:18;;;;;;;37.55;26.17;;;;;;;8.83;67.42;99835.41;1660223;82;21201;-70
2021/04/13 02:01:55;;;;;;;43.23;27.40;;;;;;;8.82;67.51;99835.90;1693550;84;21309;-70
2021/04/13 02:04:31;;;;;;;33.83;23.65;;;;;;;8.84;67.62;99829.20;1715395;82;21837;-70
2021/04/13 02:07:19;;;;;;;37.50;25.75;;;;;;;8.94;67.47;99835.60;1699532;83;21329;-70
2021/04/13 02:09:42;;;;;;;41.10;26.10;;;;;;;9.07;67.15;99833.53;1731145;82;21143;-70
2021/04/13 02:12:27;;;;;;;36.65;25.80;;;;;;;9.04;67.20;99827.97;1731315;82;21161;-70
2021/04/13 02:15:11;;;;;;;38.75;25.20;;;;;;;9.02;67.31;99835.95;1707195;82;21703;-70
2021/04/13 02:17:48;;;;;;;37.03;25.88;;;;;;;8.98;67.42;99830.50;1673062;83;21702;-70
2021/04/13 02:20:15;;;;;;;40.08;24.32;;;;;;;8.93;67.61;99833.06;1705726;82;21635;-70
2021/04/13 02:22:44;;;;;;;33.65;23.38;;;;;;;8.93;67.67;99827.31;1698773;82;21292;-70
2021/04/13 02:25:16;;;;;;;38.02;25.43;;;;;;;9.12;67.30;99823.05;1705293;82;21187;-70
2021/04/13 02:27:43;;;;;;;41.98;26.12;;;;;;;9.18;67.12;99822.66;1726933;82;21297;-70
2021/04/13 02:30:16;;;;;;;38.95;25.35;;;;;;;9.16;67.16;99825.02;1717043;83;21166;-70
2021/04/13 02:32:47;;;;;;;36.35;25.60;;;;;;;9.10;67.29;99817.49;1726884;82;21190;-69
2021/04/13 02:35:22;;;;;;;39.23;25.48;;;;;;;9.04;67.43;99820.52;1726316;82;21663;-69
2021/04/13 02:37:56;;;;;;;30.92;20.30;;;;;;;8.98;67.57;99823.91;1724356;82;21614;-70
2021/04/13 02:40:27;;;;;;;;;;;;;;;8.99;67.69;99822.97;1696804;83;21299;-69
2021/04/13 02:42:56;;;;;;;38.38;24.12;;;;;;;9.10;67.43;99822.77;1700385;82;20267;-70
2021/04/13 02:45:34;;;;;;;33.65;23.20;;;;;;;9.10;67.43;99818.33;1730631;82;21128;-70
2021/04/13 02:48:11;;;;;;;37.17;25.60;;;;;;;9.03;67.67;99822.31;1691144;84;21321;-70
2021/04/13 02:50:41;;;;;;;36.30;23.70;;;;;;;8.93;67.89;99817.24;1709183;82;21178;-70
2021/04/13 02:53:08;;;;;;;34.98;24.20;;;;;;;8.88;68.08;99817.52;1710171;82;21136;-70
2021/04/13 02:55:38;;;;;;;32.85;24.00;;;;;;;8.83;68.24;99826.19;1712195;82;21167;-70
2021/04/13 02:58:09;;;;;;;35.98;25.65;;;;;;;8.85;68.30;99827.78;1698294;84;21159;-70
2021/04/13 03:00:45;;;;;;;39.53;25.40;;;;;;;9.04;67.98;99823.15;1714018;82;22193;-70
2021/04/13 03:03:19;;;;;;;36.93;25.23;;;;;;;9.10;67.83;99822.28;1700227;83;22180;-70
2021/04/13 03:05:52;;;;;;;33.88;24.65;;;;;;;9.12;67.79;99832.28;1709278;82;21124;-70
2021/04/13 03:08:20;;;;;;;41.15;25.92;;;;;;;9.14;67.69;99824.27;1671807;84;21128;-70
2021/04/13 03:10:59;;;;;;;33.75;23.85;;;;;;;9.14;67.75;99824.27;1693637;84;21190;-70
2021/04/13 03:13:28;;;;;;;35.90;25.75;;;;;;;9.14;67.82;99824.27;1670732;84;21195;-71
2021/04/13 03:15:59;;;;;;;40.43;25.82;;;;;;;9.11;67.91;99821.83;1672803;85;21183;-70
2021/04/13 03:18:32;;;;;;;39.92;25.57;;;;;;;9.08;67.91;99830.78;1662819;84;21178;-70
2021/04/13 03:22:22;;;;;;;39.27;25.95;;;;;;;9.35;67.48;99825.54;1782652;79;23380;-71
2021/04/13 03:24:50;;;;;;;38.65;25.55;;;;;;;9.38;67.37;99827.62;1709925;82;21132;-69
2021/04/13 03:27:21;;;;;;;36.08;25.05;;;;;;;9.35;67.44;99827.34;1682957;83;21614;-69
2021/04/13 03:30:10;;;;;;;40.38;25.92;;;;;;;9.30;67.50;99823.66;1747137;80;21297;-69
2021/04/13 03:32:45;;;;;;;32.73;23.32;;;;;;;9.26;67.78;99822.17;1730913;82;21127;-71
2021/04/13 03:35:13;;;;;;;32.95;23.47;;;;;;;9.22;67.71;99823.77;1737883;80;22336;-70
2021/04/13 03:37:42;;;;;;;36.85;26.42;;;;;;;9.16;67.86;99819.27;1750662;80;21189;-70
2021/04/13 03:40:12;;;;;;;42.98;26.07;;;;;;;9.17;67.86;99826.72;1757984;80;21194;-70
2021/04/13 03:42:39;;;;;;;36.98;23.90;;;;;;;9.35;67.46;99822.90;1718524;82;21368;-70
2021/04/13 03:45:12;;;;;;;40.98;25.90;;;;;;;9.40;67.37;99825.70;1715966;82;21762;-70
2021/04/13 03:47:40;;;;;;;42.00;27.90;;;;;;;9.34;67.46;99826.48;1712787;84;21131;-71
2021/04/13 03:50:12;;;;;;;40.90;27.17;;;;;;;9.28;67.60;99834.78;1720640;82;21127;-71
2021/04/13 03:52:39;;;;;;;35.80;26.45;;;;;;;9.28;67.58;99827.34;1671108;84;21222;-70
2021/04/13 03:55:20;;;;;;;39.92;26.75;;;;;;;9.28;67.52;99832.14;1691398;82;21194;-70
2021/04/13 03:57:47;;;;;;;39.45;26.35;;;;;;;9.26;67.59;99834.05;1741558;82;21583;-70
2021/04/13 04:00:21;;;;;;;37.13;26.40;;;;;;;9.39;67.38;99842.03;1741958;82;21194;-70
2021/04/13 04:02:49;;;;;;;35.90;24.43;;;;;;;9.52;67.07;99836.80;1741354;82;21174;-70
2021/04/13 04:05:22;;;;;;;36.85;25.88;;;;;;;9.49;67.08;99833.89;1683534;84;21402;-70
2021/04/13 04:10:49;;;;;;;42.30;26.85;;;;;;;9.41;67.35;99826.95;1928266;74;23333;-70
2021/04/13 04:13:25;;;;;;;36.77;25.72;;;;;;;9.34;67.51;99832.23;1896407;75;21144;-71
2021/04/13 04:16:13;;;;;;;38.90;26.00;;;;;;;9.33;67.49;99831.41;1891365;75;21145;-71
2021/04/13 04:18:50;;;;;;;38.15;25.75;;;;;;;9.38;67.48;99832.89;1880136;74;21152;-70
2021/04/13 04:21:34;;;;;;;38.45;25.52;;;;;;;9.53;67.29;99835.00;1867738;75;21111;-71
2021/04/13 04:24:22;;;;;;;38.88;25.62;;;;;;;9.51;67.29;99835.97;1873558;75;21781;-70
2021/04/13 04:26:56;;;;;;;40.90;26.00;;;;;;;9.45;67.49;99844.73;1897773;75;21071;-70
2021/04/13 04:29:35;;;;;;;39.08;26.73;;;;;;;9.43;67.55;99837.41;1894087;75;21130;-70
2021/04/13 04:32:29;;;;;;;40.55;26.90;;;;;;;9.41;67.58;99837.97;1877246;75;21267;-70
2021/04/13 04:34:58;;;;;;;39.70;26.27;;;;;;;9.40;67.64;99841.55;1888088;75;21114;-69
2021/04/13 04:37:48;;;;;;;39.70;25.17;;;;;;;9.38;67.75;99840.81;1898330;75;21110;-70
2021/04/13 04:40:33;;;;;;;39.78;25.20;;;;;;;9.43;67.66;99831.64;1901406;75;21130;-70
2021/04/13 04:43:06;;;;;;;36.55;25.00;;;;;;;9.57;67.47;99838.67;1895177;75;21104;-70
2021/04/13 04:45:40;;;;;;;;;;;;;;;9.56;67.51;99846.22;1913065;75;21151;-70
2021/04/13 04:48:35;;;;;;;36.50;25.05;;;;;;;9.52;67.57;99843.41;1893249;75;20204;-71
2021/04/13 04:51:10;;;;;;;39.03;25.02;;;;;;;9.45;67.72;99840.32;1890691;75;21445;-71
2021/04/13 04:53:39;;;;;;;34.23;23.70;;;;;;;9.42;67.85;99844.45;1873846;75;21070;-71
2021/04/13 04:56:09;;;;;;;38.33;23.85;;;;;;;9.41;67.93;99834.88;1888416;75;21475;-70
2021/04/13 04:58:36;;;;;;;40.58;25.57;;;;;;;9.47;67.88;99836.26;1900168;75;21250;-70
2021/04/13 05:01:04;;;;;;;35.95;24.92;;;;;;;9.59;67.65;99839.44;1896987;74;21141;-69
2021/04/13 05:03:33;;;;;;;50.10;33.20;;;;;;;9.60;67.77;99841.10;1890184;74;21741;-70
2021/04/13 05:06:00;;;;;;;56.98;36.70;;;;;;;9.53;67.92;99835.87;1817506;78;21163;-71
2021/04/13 05:08:30;;;;;;;41.00;26.10;;;;;;;9.48;68.08;99834.00;1834898;78;21328;-71
2021/04/13 05:10:57;;;;;;;40.92;26.45;;;;;;;9.42;68.26;99837.03;1808530;78;21134;-71
2021/04/13 05:13:26;;;;;;;42.27;26.50;;;;;;;9.38;68.35;99835.53;1823306;78;21462;-70
2021/04/13 05:15:53;;;;;;;47.67;25.15;;;;;;;9.50;68.32;99844.83;1822862;78;21698;-70
2021/04/13 05:18:20;;;;;;;37.08;24.10;;;;;;;9.52;68.26;99842.09;1830300;78;21162;-71
2021/04/13 05:20:48;;;;;;;41.42;25.90;;;;;;;9.52;68.27;99836.80;1802846;78;21291;-70
2021/04/13 05:23:15;;;;;;;36.90;25.05;;;;;;;9.49;68.33;99827.78;1813600;78;21601;-71
2021/04/13 05:25:43;;;;;;;39.27;28.10;;;;;;;9.45;68.35;99831.53;1806622;79;21140;-71
2021/04/13 05:28:11;;;;;;;46.77;27.37;;;;;;;9.43;68.46;99836.92;1823548;78;21174;-71
2021/04/13 05:30:38;;;;;;;44.33;25.12;;;;;;;9.52;68.34;99831.52;1830162;78;21182;-70
2021/04/13 05:33:06;;;;;;;39.73;24.57;;;;;;;9.72;67.96;99830.69;1822712;78;21545;-71
2021/04/13 05:35:33;;;;;;;52.60;26.62;;;;;;;9.72;68.02;99824.09;1802114;79;21567;-71
2021/04/13 05:38:05;;;;;;;40.38;25.50;;;;;;;9.66;68.16;99820.91;1824056;78;21572;-70
2021/04/13 05:40:35;;;;;;;38.67;26.23;;;;;;;9.65;68.22;99821.02;1805927;79;21544;-71
2021/04/13 05:43:02;;;;;;;34.73;22.75;;;;;;;9.61;68.36;99825.64;1821888;79;21615;-71
2021/04/13 05:45:33;;;;;;;35.38;22.02;;;;;;;9.59;68.37;99822.27;1828027;78;21289;-70
2021/04/13 05:48:00;;;;;;;40.88;25.52;;;;;;;9.67;68.24;99822.60;1808366;78;21142;-69
2021/04/13 05:50:31;;;;;;;35.20;22.62;;;;;;;9.71;68.09;99823.73;1835149;78;21177;-70
2021/04/13 05:52:58;;;;;;;44.00;22.67;;;;;;;9.63;68.33;99824.21;1819818;78;21111;-69
2021/04/13 05:55:26;;;;;;;45.00;26.85;;;;;;;9.54;68.55;99820.41;1823054;78;21551;-69
2021/04/13 05:57:54;;;;;;;45.52;27.82;;;;;;;9.48;68.73;99823.44;1830957;78;21169;-71
2021/04/13 06:00:24;;;;;;;41.85;24.85;;;;;;;9.49;68.79;99822.50;1825303;78;21121;-71
2021/04/13 06:02:51;;;;;;;34.23;22.48;;;;;;;9.59;68.63;99822.27;1807490;78;21314;-71
2021/04/13 06:05:21;;;;;;;35.13;22.27;;;;;;;9.78;68.28;99822.37;1821828;78;21162;-71
2021/04/13 06:07:49;;;;;;;36.42;25.12;;;;;;;9.75;68.29;99823.91;1823255;78;21173;-71
2021/04/13 06:10:17;;;;;;;28.83;18.12;;;;;;;9.70;68.47;99824.69;1833356;78;21578;-71
2021/04/13 06:12:56;;;;;;;44.80;26.07;;;;;;;9.71;68.63;99827.70;1804549;78;21300;-71
2021/04/13 06:15:27;;;;;;;39.15;24.20;;;;;;;9.65;68.67;99828.48;1810978;78;21274;-71
2021/04/13 06:17:55;;;;;;;44.15;25.60;;;;;;;9.75;68.63;99830.51;1807635;78;21145;-72
2021/04/13 06:20:23;;;;;;;44.53;26.82;;;;;;;9.95;68.16;99831.36;1809538;78;21173;-71
2021/04/13 06:22:50;;;;;;;42.33;25.65;;;;;;;10.05;68.04;99837.34;1822129;78;21153;-71
2021/04/13 06:25:20;;;;;;;40.45;25.52;;;;;;;10.07;68.06;99830.17;1834348;78;21130;-69
2021/04/13 06:27:47;;;;;;;40.83;26.37;;;;;;;10.06;68.06;99833.75;1793978;79;21596;-68
2021/04/13 06:30:17;;;;;;;35.95;21.80;;;;;;;10.05;68.16;99843.95;1792386;78;21134;-70
2021/04/13 06:32:44;;;;;;;40.63;26.17;;;;;;;10.11;68.16;99837.77;1809877;78;21150;-70
2021/04/13 06:35:13;;;;;;;47.60;31.65;;;;;;;10.18;68.04;99831.62;1793386;78;21121;-72
2021/04/13 06:37:42;;;;;;;58.35;35.40;;;;;;;10.13;68.25;99836.37;1832068;78;21153;-71
2021/04/13 06:40:21;;;;;;;44.98;30.20;;;;;;;10.07;68.55;99839.41;1864816;76;21229;-71
2021/04/13 06:43:11;;;;;;;47.03;26.33;;;;;;;10.04;68.67;99835.64;1848132;77;21725;-72
2021/04/13 06:45:52;;;;;;;42.30;25.88;;;;;;;10.04;68.80;99836.96;1840943;77;21133;-71
2021/04/13 06:48:34;;;;;;;40.00;25.52;;;;;;;10.11;68.67;99831.16;1796995;78;21696;-70
2021/04/13 06:51:10;;;;;;;39.65;26.37;;;;;;;10.26;68.48;99832.42;1809173;78;21184;-71
2021/04/13 06:54:10;;;;;;;42.08;26.97;;;;;;;10.24;68.80;99837.78;1829314;78;21149;-71
2021/04/13 06:57:02;;;;;;;41.23;23.83;;;;;;;10.11;69.27;99829.00;1809334;78;21704;-72
2021/04/13 06:59:57;;;;;;;36.98;23.60;;;;;;;10.07;69.50;99846.02;1795626;78;21160;-72
2021/04/13 07:02:32;;;;;;;44.03;26.23;;;;;;;10.11;69.62;99831.16;1789711;78;21197;-72
2021/04/13 07:05:09;;;;;;;44.60;25.92;;;;;;;10.00;69.97;99838.98;1804875;78;21169;-69
2021/04/13 07:08:01;;;;;;;51.80;29.45;;;;;;;9.85;70.43;99839.52;1811490;78;21707;-69
2021/04/13 07:10:33;;;;;;;42.25;25.92;;;;;;;9.77;70.80;99841.80;1807665;78;21682;-70
2021/04/13 07:13:16;;;;;;;38.23;25.32;;;;;;;9.95;70.71;99845.89;1811042;78;21742;-70
2021/04/13 07:15:59;;;;;;;41.23;26.63;;;;;;;10.11;70.72;99843.05;1813154;78;21135;-70
2021/04/13 07:18:42;;;;;;;38.53;24.40;;;;;;;10.06;71.10;99843.00;1810196;78;21126;-70
2021/04/13 07:21:36;;;;;;;38.48;25.02;;;;;;;9.98;71.31;99846.16;1806865;78;21159;-70
2021/04/13 07:24:19;;;;;;;40.88;26.73;;;;;;;9.94;71.74;99848.15;1802842;78;21158;-70
2021/04/13 07:26:58;;;;;;;34.20;23.92;;;;;;;10.09;71.57;99841.46;1801616;78;21154;-71
2021/04/13 07:29:45;;;;;;;41.90;27.35;;;;;;;10.21;71.57;99837.17;1768875;79;22735;-70
2021/04/13 07:32:21;;;;;;;45.23;26.75;;;;;;;10.17;71.39;99840.49;1728718;81;21171;-69
2021/04/13 07:34:57;;;;;;;46.73;29.02;;;;;;;10.20;71.14;99831.51;1749263;80;21665;-70
2021/04/13 07:37:46;;;;;;;41.13;26.23;;;;;;;10.25;71.02;99834.20;1731352;82;21598;-69
2021/04/13 07:40:18;;;;;;;38.83;26.35;;;;;;;10.37;70.80;99840.95;1743216;80;21110;-70
2021/04/13 07:42:50;;;;;;;41.33;26.57;;;;;;;10.58;70.35;99839.49;1751279;80;21123;-71
2021/04/13 07:45:49;;;;;;;42.27;27.17;;;;;;;10.61;70.13;99834.01;1742918;82;21147;-70
2021/04/13 07:48:37;;;;;;;44.55;26.68;;;;;;;10.60;70.07;99839.38;1783555;80;21140;-70
2021/04/13 07:51:26;;;;;;;44.03;29.30;;;;;;;10.58;70.11;99839.49;1696366;84;21582;-68
2021/04/13 07:54:17;;;;;;;42.67;28.15;;;;;;;10.58;70.03;99848.75;1705954;82;21198;-68
2021/04/13 07:56:50;;;;;;;44.18;27.35;;;;;;;10.71;69.86;99842.13;1747155;80;21296;-69
2021/04/13 07:59:59;;;;;;;48.60;28.30;;;;;;;10.87;69.40;99847.21;1732604;80;21175;-71
2021/04/13 08:02:26;;;;;;;49.20;30.15;;;;;;;10.86;69.45;99845.52;1740237;82;21165;-71
2021/04/13 08:04:53;;;;;;;55.28;30.57;;;;;;;10.84;69.48;99835.50;1689764;82;21139;-69
2021/04/13 08:07:35;;;;;;;52.95;31.62;;;;;;;10.87;69.50;99835.30;1675313;83;21123;-70
2021/04/13 08:10:19;;;;;;;81.57;29.70;;;;;;;10.91;69.24;99840.75;1720602;83;21183;-69
2021/04/13 08:12:59;;;;;;;40.48;28.38;;;;;;;11.05;69.17;99834.94;1659984;85;21328;-69
2021/04/13 08:15:48;;;;;;;39.33;24.37;;;;;;;11.19;68.75;99828.20;1750931;82;21215;-68
2021/04/13 08:18:40;;;;;;;43.30;29.02;;;;;;;11.15;68.62;99820.09;1750764;82;21179;-67
2021/04/13 08:21:31;;;;;;;48.08;29.23;;;;;;;11.04;68.83;99831.95;1720181;82;21131;-69
2021/04/13 08:23:59;;;;;;;44.98;28.47;;;;;;;11.05;68.94;99823.03;1720083;82;21157;-70
2021/04/13 08:26:35;;;;;;;45.30;29.72;;;;;;;11.18;68.68;99819.89;1721740;82;21186;-70
2021/04/13 08:29:30;;;;;;;46.70;28.38;;;;;;;11.38;68.25;99814.95;1710451;83;21682;-68
2021/04/13 08:35:36;;;;;;;50.15;28.62;;;;;;;11.40;67.94;99818.34;1694462;84;21576;-70
2021/04/13 08:38:29;;;;;;;45.58;30.65;;;;;;;11.44;68.04;99815.83;1721442;82;21187;-69
2021/04/13 08:41:23;;;;;;;49.08;29.67;;;;;;;11.46;67.74;99807.31;1681044;84;21236;-70
2021/04/13 08:43:55;;;;;;;52.15;30.27;;;;;;;11.49;67.63;99812.36;1702649;82;21612;-70
2021/04/13 08:46:30;;;;;;;47.73;30.52;;;;;;;11.64;67.48;99809.08;1713760;82;21293;-68
2021/04/13 08:49:25;;;;;;;45.17;27.25;;;;;;;11.70;67.35;99810.41;1699584;84;21648;-68
2021/04/13 08:52:20;;;;;;;;;;;;;;;11.72;67.10;99815.96;1717156;82;21198;-68
2021/04/13 08:54:49;;;;;;;;;;;;;;;11.66;67.11;99818.23;1698857;83;20147;-70
2021/04/13 08:57:45;;;;;;;46.70;28.45;;;;;;;11.58;67.24;99815.66;1717406;82;20235;-70
2021/04/13 09:00:38;;;;;;;57.00;31.25;;;;;;;11.53;67.30;99816.96;1678845;84;21158;-70
2021/04/13 09:03:08;;;;;;;52.50;30.50;;;;;;;11.68;66.93;99811.86;1675543;84;21262;-69
2021/04/13 09:05:39;;;;;;;64.10;29.50;;;;;;;11.72;66.88;99808.02;1644424;85;21708;-69
2021/04/13 09:08:31;;;;;;;54.63;30.82;;;;;;;11.72;66.76;99807.19;1668477;86;21407;-69
2021/04/13 09:11:27;;;;;;;48.02;29.40;;;;;;;11.73;66.76;99807.06;1669182;85;21193;-69
2021/04/13 09:14:15;;;;;;;45.08;28.55;;;;;;;11.75;66.64;99808.27;1665677;85;21297;-69
2021/04/13 09:16:50;;;;;;;47.25;29.35;;;;;;;11.82;66.40;99808.67;1671293;85;21121;-69
2021/04/13 09:19:32;;;;;;;49.88;29.52;;;;;;;11.93;65.92;99808.23;1670491;85;21141;-68
2021/04/13 09:22:16;;;;;;;46.53;30.80;;;;;;;11.84;65.96;99799.66;1675273;85;21185;-68
2021/04/13 09:24:44;;;;;;;62.25;35.30;;;;;;;11.80;66.03;99803.47;1667276;86;21118;-69
2021/04/13 09:27:49;;;;;;;53.08;30.48;;;;;;;11.84;66.03;99806.28;1677577;85;21350;-69
2021/04/13 09:30:34;;;;;;;43.67;26.93;;;;;;;11.89;65.97;99800.16;1672065;85;21185;-69
2021/04/13 09:33:32;;;;;;;45.38;27.77;;;;;;;12.03;65.78;99792.48;1668265;86;21201;-69
2021/04/13 09:36:27;;;;;;;52.70;28.70;;;;;;;12.14;65.32;99794.34;1672869;85;21306;-70
2021/04/13 09:39:30;;;;;;;55.12;28.83;;;;;;;12.12;65.24;99789.16;1677595;85;21181;-69
2021/04/13 09:42:44;;;;;;;48.92;29.70;;;;;;;12.05;65.19;99789.75;1668039;86;21145;-69
2021/04/13 09:45:22;;;;;;;49.88;30.00;;;;;;;11.99;65.31;99789.72;1614548;89;21351;-69
2021/04/13 09:48:28;;;;;;;47.33;29.15;;;;;;;11.87;65.70;99785.33;1653876;85;21653;-69
2021/04/13 09:51:16;;;;;;;48.83;30.72;;;;;;;11.95;65.75;99797.05;1675818;85;21189;-69
2021/04/13 09:54:09;;;;;;;42.23;27.42;;;;;;;12.17;65.08;99795.42;1675718;85;21649;-68
2021/04/13 09:56:42;;;;;;;51.00;31.57;;;;;;;12.23;65.12;99787.00;1638254;85;21158;-69
2021/04/13 09:59:38;;;;;;;47.93;31.12;;;;;;;12.34;64.73;99781.35;1642906;85;21178;-69
2021/04/13 10:02:50;;;;;;;40.58;27.05;;;;;;;12.42;64.19;99785.59;1645806;85;21190;-70
2021/04/13 10:05:21;;;;;;;46.45;30.08;;;;;;;12.45;63.79;99785.34;1646161;86;21162;-69
2021/04/13 10:08:01;;;;;;;47.35;28.45;;;;;;;12.46;63.76;99784.39;1661368;85;21672;-70
2021/04/13 10:10:42;;;;;;;43.98;28.85;;;;;;;12.53;63.71;99785.61;1628418;86;21202;-71
2021/04/13 10:13:39;;;;;;;46.77;30.37;;;;;;;12.78;63.48;99782.34;1658846;85;21348;-70
2021/04/13 10:16:21;;;;;;;46.08;28.90;;;;;;;12.86;63.02;99775.93;1646806;85;21186;-71
2021/04/13 10:22:52;;;;;;;44.45;26.70;;;;;;;12.85;62.63;99778.71;1722692;82;21187;-70
2021/04/13 10:25:32;;;;;;;66.30;29.27;;;;;;;12.80;62.89;99779.09;1695681;82;21210;-70
2021/04/13 10:28:26;;;;;;;51.68;27.70;;;;;;;12.84;62.66;99776.55;1737352;82;21276;-71
2021/04/13 10:30:57;;;;;;;;;;;;;;;12.87;62.38;99782.10;1733374;82;21281;-70
2021/04/13 10:33:51;;;;;;;41.80;25.27;;;;;;;12.88;62.36;99779.32;1731432;82;20213;-70
2021/04/13 10:36:57;;;;;;;43.20;23.87;;;;;;;12.87;62.28;99769.66;1745299;82;21300;-70
2021/04/13 10:40:03;;;;;;;37.28;23.12;;;;;;;12.96;61.86;99770.74;1735276;82;21289;-70
2021/04/13 10:42:56;;;;;;;64.55;26.50;;;;;;;12.82;61.89;99778.97;1749683;82;21178;-69
2021/04/13 10:45:38;;;;;;;39.80;23.85;;;;;;;12.62;62.44;99774.73;1725997;82;21741;-70
2021/04/13 10:48:23;;;;;;;48.85;24.15;;;;;;;12.35;63.05;99771.94;1741034;82;21169;-70
2021/04/13 10:51:29;;;;;;;34.03;21.85;;;;;;;12.28;63.46;99776.05;1742901;82;21284;-70
2021/04/13 10:54:14;;;;;;;29.30;20.60;;;;;;;12.18;63.79;99770.60;1726284;82;21170;-69
2021/04/13 10:57:17;;;;;;;32.42;20.77;;;;;;;12.20;64.01;99772.67;1707191;82;21171;-69
2021/04/13 11:00:20;;;;;;;37.42;24.30;;;;;;;12.35;63.54;99768.45;1702544;84;21175;-69
2021/04/13 11:03:01;;;;;;;35.80;22.05;;;;;;;12.25;63.68;99766.99;1672308;85;21254;-68
2021/04/13 11:05:58;;;;;;;34.83;20.77;;;;;;;12.21;63.99;99771.71;1695378;84;21635;-68
2021/04/13 11:08:33;;;;;;;34.60;21.85;;;;;;;12.26;63.99;99765.57;1744803;82;21215;-69
2021/04/13 11:11:54;;;;;;;32.93;22.75;;;;;;;12.29;63.81;99761.34;1729318;82;22292;-68
2021/04/13 11:14:43;;;;;;;32.05;20.77;;;;;;;12.29;63.83;99764.00;1702464;82;21166;-69
2021/04/13 11:17:23;;;;;;;37.93;23.90;;;;;;;12.48;63.62;99752.44;1720313;82;21344;-69
2021/04/13 11:20:24;;;;;;;35.25;22.67;;;;;;;12.65;63.14;99751.95;1736598;82;21178;-69
2021/04/13 11:23:32;;;;;;;27.17;19.37;;;;;;;12.75;62.74;99762.70;1711992;82;21163;-69
2021/04/13 11:26:39;;;;;;;31.00;20.88;;;;;;;12.78;62.43;99754.48;1703473;83;21204;-70
2021/04/13 11:29:33;;;;;;;30.32;20.23;;;;;;;12.69;62.30;99756.55;1710665;82;21330;-69
2021/04/13 11:32:43;;;;;;;32.35;20.37;;;;;;;12.52;62.84;99753.41;1719715;82;21615;-70
2021/04/13 11:35:28;;;;;;;60.33;22.37;;;;;;;12.45;63.19;99753.52;1705886;82;21143;-68
2021/04/13 11:38:33;;;;;;;36.00;22.98;;;;;;;12.60;62.95;99754.96;1720944;82;21304;-69
2021/04/13 11:41:30;;;;;;;32.45;22.05;;;;;;;12.63;62.98;99756.53;1717893;82;21637;-69
2021/04/13 11:44:02;;;;;;;50.03;22.52;;;;;;;12.60;63.02;99752.31;1726164;82;21123;-69
2021/04/13 11:46:47;;;;;;;43.98;23.42;;;;;;;12.61;63.04;99756.66;1701280;84;21151;-69
2021/04/13 11:49:23;;;;;;;36.48;23.77;;;;;;;12.60;62.95;99754.96;1704167;82;21322;-69
2021/04/13 11:52:01;;;;;;;41.75;22.67;;;;;;;12.59;62.97;99751.94;1705916;84;21321;-69
2021/04/13 11:54:52;;;;;;;32.20;21.10;;;;;;;12.62;62.85;99747.74;1823094;77;23124;-70
2021/04/13 11:57:33;;;;;;;36.53;23.50;;;;;;;12.68;62.63;99750.88;1784888;78;21707;-69
2021/04/13 12:00:21;;;;;;;57.50;25.90;;;;;;;12.62;62.77;99741.56;1772565;80;21131;-70
2021/04/13 12:03:06;;;;;;;29.85;21.12;;;;;;;12.56;62.98;99746.06;1781776;79;21366;-69
2021/04/13 12:05:53;;;;;;;28.67;20.30;;;;;;;12.53;62.95;99747.61;1769186;80;21139;-68
2021/04/13 12:08:39;;;;;;;33.92;22.65;;;;;;;12.46;62.87;99736.64;1760435;79;21283;-68
2021/04/13 12:11:17;;;;;;;35.88;19.65;;;;;;;12.36;63.04;99740.98;1759923;81;21143;-69
2021/04/13 12:13:50;;;;;;;32.45;18.82;;;;;;;12.31;63.34;99735.20;1772946;79;21171;-68
2021/04/13 12:16:41;;;;;;;28.25;20.65;;;;;;;12.35;63.21;99732.16;1774867;79;21135;-68
2021/04/13 12:19:20;;;;;;;26.45;19.23;;;;;;;12.24;63.36;99730.36;1669826;85;21238;-69
2021/04/13 12:21:53;;;;;;;30.72;18.87;;;;;;;12.02;63.95;99739.14;1743048;79;21123;-69
2021/04/13 12:24:45;;;;;;;30.88;21.97;;;;;;;11.88;64.50;99732.20;1775005;80;21123;-69
2021/04/13 12:27:34;;;;;;;29.32;19.57;;;;;;;11.85;64.62;99736.40;1698280;82;21140;-69
2021/04/13 12:30:30;;;;;;;32.33;20.30;;;;;;;11.90;64.81;99738.22;1698997;83;21788;-70
2021/04/13 12:32:58;;;;;;;37.03;23.73;;;;;;;11.93;64.87;99732.70;1738279;82;21163;-68
2021/04/13 12:35:56;;;;;;;34.83;20.57;;;;;;;11.75;65.17;99730.97;1727959;81;21363;-69
2021/04/13 12:38:51;;;;;;;41.15;23.95;;;;;;;11.71;65.55;99735.28;1729051;83;21285;-69